createdAt,value
2024-05-09T00:02:08.046Z,42.92
2024-05-09T00:04:25.328Z,43.35
2024-05-09T00:06:42.643Z,44.00
2024-05-09T00:08:59.677Z,49.47
2024-05-09T00:11:16.862Z,47.47
2024-05-09T00:13:34.208Z,44.03
2024-05-09T00:15:51.367Z,46.88
2024-05-09T00:18:08.870Z,46.50
2024-05-09T00:20:35.044Z,40.80
2024-05-09T00:22:56.067Z,41.13
2024-05-09T00:25:13.192Z,41.03
2024-05-09T00:27:30.266Z,41.92
2024-05-09T00:29:47.403Z,44.47
2024-05-09T00:32:04.702Z,45.22
2024-05-09T00:34:22.425Z,42.35
2024-05-09T00:36:39.623Z,45.45
2024-05-09T00:38:56.723Z,45.50
2024-05-09T00:41:16.365Z,42.05
2024-05-09T00:43:34.174Z,42.58
2024-05-09T00:45:51.296Z,41.28
2024-05-09T00:48:10.017Z,41.58
2024-05-09T00:50:35.589Z,42.20
2024-05-09T00:52:54.384Z,42.63
2024-05-09T00:55:11.517Z,46.90
2024-05-09T00:57:28.586Z,41.80
2024-05-09T00:59:45.683Z,38.95
2024-05-09T01:02:02.889Z,43.28
2024-05-09T01:04:20.049Z,41.45
2024-05-09T01:06:37.184Z,41.40
2024-05-09T01:08:54.287Z,41.80
2024-05-09T01:11:11.530Z,43.33
2024-05-09T01:13:28.636Z,41.95
2024-05-09T01:15:45.757Z,42.17
2024-05-09T01:18:03.172Z,44.50
2024-05-09T01:20:31.515Z,39.30
2024-05-09T01:22:56.875Z,39.67
2024-05-09T01:25:14.050Z,40.92
2024-05-09T01:27:31.083Z,41.28
2024-05-09T01:29:48.275Z,40.58
2024-05-09T01:32:05.500Z,41.80
2024-05-09T01:34:22.757Z,42.97
2024-05-09T01:36:39.877Z,39.78
2024-05-09T01:38:56.941Z,42.33
2024-05-09T01:41:14.063Z,40.08
2024-05-09T01:43:31.257Z,40.92
2024-05-09T01:45:48.295Z,39.78
2024-05-09T01:48:05.597Z,41.78
2024-05-09T01:50:34.155Z,40.75
2024-05-09T01:52:56.558Z,41.33
2024-05-09T01:55:13.785Z,40.15
2024-05-09T01:57:30.975Z,39.97
2024-05-09T01:59:48.081Z,41.33
2024-05-09T02:02:05.394Z,40.70
2024-05-09T02:04:22.717Z,39.22
2024-05-09T02:06:39.941Z,39.15
2024-05-09T02:08:57.019Z,46.80
2024-05-09T02:11:14.337Z,41.17
2024-05-09T02:13:31.479Z,36.75
2024-05-09T02:15:48.584Z,41.28
2024-05-09T02:18:05.985Z,39.33
2024-05-09T02:20:30.582Z,40.13
2024-05-09T02:22:53.264Z,39.55
2024-05-09T02:25:10.405Z,39.55
2024-05-09T02:27:27.582Z,41.88
2024-05-09T02:29:44.774Z,36.85
2024-05-09T02:32:01.952Z,39.70
2024-05-09T02:34:19.299Z,37.83
2024-05-09T02:36:36.476Z,39.30
2024-05-09T02:38:53.657Z,38.08
2024-05-09T02:41:10.835Z,40.55
2024-05-09T02:43:27.989Z,38.13
2024-05-09T02:45:45.171Z,40.45
2024-05-09T02:48:02.765Z,38.75
2024-05-09T02:50:29.599Z,39.20
2024-05-09T02:52:53.894Z,39.72
2024-05-09T02:55:11.105Z,41.80
2024-05-09T02:57:28.210Z,38.20
2024-05-09T02:59:45.260Z,37.95
2024-05-09T03:02:02.878Z,39.60
2024-05-09T03:04:20.037Z,38.88
2024-05-09T03:06:37.220Z,37.58
2024-05-09T03:08:54.283Z,36.85
2024-05-09T03:11:11.526Z,38.40
2024-05-09T03:13:28.750Z,36.63
2024-05-09T03:15:45.862Z,35.45
2024-05-09T03:18:03.356Z,38.30
2024-05-09T03:20:24.226Z,40.97
2024-05-09T03:22:47.904Z,38.47
2024-05-09T03:25:05.003Z,35.70
2024-05-09T03:27:22.027Z,38.67
2024-05-09T03:29:39.152Z,39.92
2024-05-09T03:31:56.292Z,36.90
2024-05-09T03:34:13.511Z,37.05
2024-05-09T03:36:30.566Z,39.72
2024-05-09T03:38:47.613Z,41.90
2024-05-09T03:41:04.689Z,42.55
2024-05-09T03:43:21.918Z,39.92
2024-05-09T03:45:38.986Z,41.38
2024-05-09T03:47:57.086Z,40.20
2024-05-09T03:50:22.032Z,40.13
2024-05-09T03:52:43.566Z,41.45
2024-05-09T03:55:00.967Z,41.65
2024-05-09T03:57:18.012Z,41.35
2024-05-09T03:59:35.174Z,40.03
2024-05-09T04:01:52.544Z,41.35
2024-05-09T04:04:09.758Z,38.13
2024-05-09T04:06:26.871Z,38.38
2024-05-09T04:08:43.920Z,41.08
2024-05-09T04:11:01.264Z,36.55
2024-05-09T04:13:18.369Z,35.80
2024-05-09T04:15:35.421Z,37.10
2024-05-09T04:17:52.740Z,39.00
2024-05-09T04:20:12.509Z,34.10
2024-05-09T04:22:35.515Z,34.00
2024-05-09T04:24:52.629Z,35.03
2024-05-09T04:27:09.689Z,35.38
2024-05-09T04:29:26.890Z,35.03
2024-05-09T04:31:44.162Z,36.42
2024-05-09T04:34:01.482Z,35.83
2024-05-09T04:36:18.647Z,36.85
2024-05-09T04:38:35.812Z,36.78
2024-05-09T04:40:53.041Z,33.45
2024-05-09T04:43:10.180Z,34.38
2024-05-09T04:45:27.332Z,34.65
2024-05-09T04:47:44.560Z,34.92
2024-05-09T04:50:01.790Z,34.45
2024-05-09T04:52:18.906Z,32.78
2024-05-09T04:54:36.765Z,32.72
2024-05-09T04:56:54.002Z,31.92
2024-05-09T04:59:11.143Z,37.92
2024-05-09T05:01:28.395Z,37.30
2024-05-09T05:03:46.262Z,33.13
2024-05-09T05:06:03.632Z,35.30
2024-05-09T05:08:20.731Z,39.08
2024-05-09T05:10:37.881Z,39.75
2024-05-09T05:12:55.013Z,35.30
2024-05-09T05:15:12.050Z,34.35
2024-05-09T05:17:29.290Z,35.22
2024-05-09T05:19:46.628Z,37.63
2024-05-09T05:22:03.739Z,42.03
2024-05-09T05:24:20.814Z,42.88
2024-05-09T05:26:38.178Z,36.55
2024-05-09T05:28:55.328Z,42.30
2024-05-09T05:31:12.475Z,39.67
2024-05-09T05:33:29.690Z,42.40
2024-05-09T05:35:46.812Z,43.78
2024-05-09T05:38:03.973Z,40.60
2024-05-09T05:40:27.946Z,45.20
2024-05-09T05:42:52.320Z,46.10
2024-05-09T05:45:09.936Z,45.08
2024-05-09T05:47:27.221Z,48.08
2024-05-09T05:49:44.409Z,45.42
2024-05-09T05:52:01.515Z,45.60
2024-05-09T05:54:18.588Z,42.90
2024-05-09T05:56:35.781Z,41.17
2024-05-09T05:58:52.884Z,40.70
2024-05-09T06:01:10.050Z,35.97
2024-05-09T06:03:27.156Z,40.25
2024-05-09T06:05:44.801Z,37.15
2024-05-09T06:08:02.079Z,37.95
2024-05-09T06:10:25.392Z,40.10
2024-05-09T06:12:43.704Z,40.75
2024-05-09T06:15:00.755Z,36.22
2024-05-09T06:17:17.872Z,37.20
2024-05-09T06:19:35.013Z,37.85
2024-05-09T06:21:52.090Z,35.63
2024-05-09T06:24:09.179Z,34.08
2024-05-09T06:26:26.268Z,31.55
2024-05-09T06:28:43.318Z,33.03
2024-05-09T06:31:00.821Z,84.53
2024-05-09T06:33:18.214Z,32.35
2024-05-09T06:35:35.653Z,39.50
2024-05-09T06:37:53.625Z,31.20
2024-05-09T06:40:12.524Z,35.10
2024-05-09T06:42:31.678Z,32.63
2024-05-09T06:44:48.768Z,31.23
2024-05-09T06:47:05.929Z,28.05
2024-05-09T06:49:23.234Z,31.05
2024-05-09T06:51:41.493Z,34.90
2024-05-09T06:53:58.580Z,26.55
2024-05-09T06:56:15.910Z,25.88
2024-05-09T06:58:33.018Z,33.70
2024-05-09T07:00:50.133Z,29.10
2024-05-09T07:03:07.415Z,31.25
2024-05-09T07:05:24.726Z,28.63
2024-05-09T07:07:41.871Z,28.88
2024-05-09T07:09:58.998Z,29.48
2024-05-09T07:12:16.160Z,27.17
2024-05-09T07:14:34.761Z,28.98
2024-05-09T07:16:54.266Z,28.33
2024-05-09T07:19:11.619Z,34.90
2024-05-09T07:21:28.857Z,29.23
2024-05-09T07:23:47.324Z,31.30
2024-05-09T07:26:04.692Z,32.22
2024-05-09T07:28:21.882Z,35.03
2024-05-09T07:30:39.016Z,32.45
2024-05-09T07:32:56.213Z,33.75
2024-05-09T07:35:13.389Z,32.60
2024-05-09T07:37:30.506Z,33.15
2024-05-09T07:39:47.649Z,31.88
2024-05-09T07:42:04.738Z,30.35
2024-05-09T07:44:21.866Z,26.40
2024-05-09T07:47:47.349Z,21.60
2024-05-09T07:50:55.902Z,21.67
2024-05-09T07:53:21.525Z,23.95
2024-05-09T07:54:30.656Z,23.75
2024-05-09T07:56:47.989Z,22.38
2024-05-09T07:59:05.146Z,20.58
2024-05-09T08:01:22.426Z,18.15
2024-05-09T08:03:39.909Z,19.63
2024-05-09T08:05:57.139Z,21.85
2024-05-09T08:08:14.186Z,20.50
2024-05-09T08:10:31.318Z,21.48
2024-05-09T08:12:48.427Z,20.33
2024-05-09T08:15:05.530Z,18.67
2024-05-09T08:17:22.740Z,19.50
2024-05-09T08:19:39.942Z,17.25
2024-05-09T08:21:57.143Z,19.35
2024-05-09T08:24:14.220Z,15.32
2024-05-09T08:26:31.313Z,15.32
2024-05-09T08:28:48.350Z,15.60
2024-05-09T08:31:07.052Z,16.23
2024-05-09T08:33:25.075Z,18.48
2024-05-09T08:35:42.153Z,16.58
2024-05-09T08:37:59.375Z,14.15
2024-05-09T08:40:23.936Z,12.90
2024-05-09T08:42:47.940Z,15.27
2024-05-09T08:45:05.031Z,9.00
2024-05-09T08:47:22.261Z,9.10
2024-05-09T08:49:41.403Z,9.85
2024-05-09T08:51:58.764Z,8.95
2024-05-09T08:54:15.998Z,10.27
2024-05-09T08:56:33.080Z,6.32
2024-05-09T08:58:55.424Z,11.65
2024-05-09T09:01:12.574Z,7.53
2024-05-09T09:03:29.926Z,9.60
2024-05-09T09:05:47.354Z,7.63
2024-05-09T09:08:04.524Z,8.20
2024-05-09T09:10:29.700Z,10.40
2024-05-09T09:12:49.243Z,8.52
2024-05-09T09:15:06.345Z,7.75
2024-05-09T09:17:23.678Z,9.65
2024-05-09T09:19:40.881Z,10.32
2024-05-09T09:21:57.985Z,8.90
2024-05-09T09:24:15.078Z,10.38
2024-05-09T09:26:32.195Z,9.90
2024-05-09T09:28:49.690Z,7.25
2024-05-09T09:31:07.241Z,7.70
2024-05-09T09:33:24.503Z,7.30
2024-05-09T09:35:41.664Z,9.80
2024-05-09T09:37:58.704Z,6.15
2024-05-09T09:40:18.337Z,9.57
2024-05-09T09:42:35.626Z,9.20
2024-05-09T09:45:01.960Z,8.20
2024-05-09T09:47:22.330Z,8.55
2024-05-09T09:49:39.501Z,6.57
2024-05-09T09:51:56.767Z,6.65
2024-05-09T09:54:13.988Z,4.35
2024-05-09T09:56:31.014Z,4.78
2024-05-09T09:58:48.350Z,6.72
2024-05-09T10:01:05.521Z,7.95
2024-05-09T10:03:22.934Z,5.05
2024-05-09T10:05:42.112Z,5.80
2024-05-09T10:08:01.687Z,5.40
2024-05-09T10:12:37.521Z,6.55
2024-05-09T10:14:55.109Z,6.85
2024-05-09T10:17:12.164Z,4.07
2024-05-09T10:19:29.407Z,4.45
2024-05-09T10:21:46.760Z,3.47
2024-05-09T10:24:04.077Z,4.88
2024-05-09T10:26:21.120Z,7.00
2024-05-09T10:28:38.186Z,4.45
2024-05-09T10:30:55.235Z,7.43
2024-05-09T10:33:12.440Z,4.93
2024-05-09T10:35:30.054Z,6.05
2024-05-09T10:37:47.126Z,4.80
2024-05-09T10:40:07.231Z,5.18
2024-05-09T10:42:28.910Z,6.30
2024-05-09T10:44:46.013Z,4.30
2024-05-09T10:47:03.095Z,6.05
2024-05-09T10:49:20.262Z,4.13
2024-05-09T10:51:37.426Z,5.10
2024-05-09T10:53:54.525Z,7.22
2024-05-09T10:56:11.627Z,5.00
2024-05-09T10:58:28.713Z,5.70
2024-05-09T11:00:45.832Z,4.55
2024-05-09T11:03:03.190Z,5.18
2024-05-09T11:05:20.516Z,6.10
2024-05-09T11:07:37.615Z,6.03
2024-05-09T11:09:55.045Z,4.65
2024-05-09T11:12:12.230Z,6.47
2024-05-09T11:14:29.802Z,3.70
2024-05-09T11:16:46.995Z,6.85
2024-05-09T11:19:04.452Z,8.13
2024-05-09T11:21:21.647Z,4.82
2024-05-09T11:23:38.768Z,4.20
2024-05-09T11:25:55.903Z,4.88
2024-05-09T11:28:13.172Z,4.18
2024-05-09T11:30:32.292Z,5.85
2024-05-09T11:32:49.895Z,5.68
2024-05-09T11:35:06.987Z,5.00
2024-05-09T11:37:24.321Z,7.75
2024-05-09T11:39:41.409Z,5.57
2024-05-09T11:41:58.503Z,4.72
2024-05-09T11:44:15.584Z,6.85
2024-05-09T11:46:32.633Z,6.35
2024-05-09T11:48:50.432Z,6.57
2024-05-09T11:51:07.610Z,9.02
2024-05-09T11:53:25.101Z,7.57
2024-05-09T11:55:42.141Z,6.47
2024-05-09T11:57:59.304Z,10.25
2024-05-09T12:00:24.550Z,4.93
2024-05-09T12:02:46.776Z,5.93
2024-05-09T12:05:04.565Z,6.97
2024-05-09T12:07:21.938Z,10.23
2024-05-09T12:09:39.119Z,4.50
2024-05-09T12:11:56.840Z,7.32
2024-05-09T12:14:13.983Z,5.45
2024-05-09T12:16:31.383Z,6.35
2024-05-09T12:18:48.919Z,7.43
2024-05-09T12:21:06.054Z,5.78
2024-05-09T12:23:23.096Z,5.75
2024-05-09T12:25:40.399Z,5.78
2024-05-09T12:27:57.773Z,5.65
2024-05-09T12:30:20.918Z,4.28
2024-05-09T12:32:46.116Z,4.75
2024-05-09T12:35:03.387Z,4.55
2024-05-09T12:37:20.551Z,5.10
2024-05-09T12:39:37.813Z,11.45
2024-05-09T12:41:54.961Z,6.13
2024-05-09T12:44:12.082Z,5.50
2024-05-09T12:46:29.222Z,7.68
2024-05-09T12:48:46.556Z,6.22
2024-05-09T12:51:03.782Z,5.07
2024-05-09T12:53:20.925Z,5.38
2024-05-09T12:55:44.790Z,4.43
2024-05-09T12:58:10.235Z,7.38
2024-05-09T13:00:31.694Z,5.05
2024-05-09T13:02:51.255Z,5.00
2024-05-09T13:05:08.476Z,4.53
2024-05-09T13:07:25.689Z,8.18
2024-05-09T13:09:42.916Z,6.25
2024-05-09T13:12:00.127Z,5.13
2024-05-09T13:14:17.234Z,3.13
2024-05-09T13:16:34.504Z,7.15
2024-05-09T13:18:51.714Z,4.13
2024-05-09T13:21:08.832Z,6.20
2024-05-09T13:23:25.885Z,5.43
2024-05-09T13:25:43.441Z,3.88
2024-05-09T13:28:00.937Z,5.97
2024-05-09T13:30:26.363Z,5.47
2024-05-09T13:32:51.667Z,4.43
2024-05-09T13:35:08.802Z,5.03
2024-05-09T13:37:26.476Z,5.57
2024-05-09T13:39:43.590Z,6.85
2024-05-09T13:42:01.211Z,4.82
2024-05-09T13:44:18.314Z,2.90
2024-05-09T13:46:35.386Z,4.20
2024-05-09T13:48:53.142Z,7.63
2024-05-09T13:51:10.341Z,4.18
2024-05-09T13:53:27.437Z,5.57
2024-05-09T13:55:44.516Z,5.25
2024-05-09T13:58:01.909Z,4.72
2024-05-09T14:00:31.717Z,5.47
2024-05-09T14:02:56.104Z,4.07
2024-05-09T14:05:13.599Z,5.45
2024-05-09T14:07:30.831Z,5.22
2024-05-09T14:09:47.966Z,3.88
2024-05-09T14:12:05.097Z,5.28
2024-05-09T14:14:22.152Z,4.45
2024-05-09T14:16:39.460Z,5.43
2024-05-09T14:18:56.720Z,5.35
2024-05-09T14:21:14.340Z,5.43
2024-05-09T14:23:31.595Z,3.95
2024-05-09T14:25:51.896Z,4.05
2024-05-09T14:28:09.828Z,8.05
2024-05-09T14:30:34.699Z,6.30
2024-05-09T14:32:54.858Z,4.60
2024-05-09T14:35:12.197Z,6.68
2024-05-09T14:37:29.390Z,4.10
2024-05-09T14:39:46.490Z,7.18
2024-05-09T14:42:03.821Z,4.32
2024-05-09T14:44:20.892Z,4.10
2024-05-09T14:46:37.973Z,4.78
2024-05-09T14:48:55.260Z,3.17
2024-05-09T14:51:12.449Z,2.80
2024-05-09T14:53:29.546Z,6.53
2024-05-09T14:55:46.715Z,3.83
2024-05-09T14:58:04.046Z,2.92
2024-05-09T15:00:26.393Z,4.70
2024-05-09T15:02:50.039Z,5.40
2024-05-09T15:05:07.539Z,5.75
2024-05-09T15:07:24.794Z,2.88
2024-05-09T15:09:41.929Z,3.50
2024-05-09T15:11:59.144Z,3.40
2024-05-09T15:14:16.235Z,5.53
2024-05-09T15:16:33.393Z,5.72
2024-05-09T15:18:50.729Z,4.53
2024-05-09T15:21:08.025Z,6.25
2024-05-09T15:23:25.312Z,3.80
2024-05-09T15:25:42.585Z,3.70
2024-05-09T15:27:59.801Z,4.55
2024-05-09T15:30:20.827Z,5.78
2024-05-09T15:32:41.251Z,5.97
2024-05-09T15:34:58.450Z,4.68
2024-05-09T15:37:15.539Z,5.45
2024-05-09T15:39:32.776Z,4.55
2024-05-09T15:41:49.890Z,6.68
2024-05-09T15:44:06.980Z,4.93
2024-05-09T15:46:24.104Z,6.88
2024-05-09T15:48:43.717Z,6.72
2024-05-09T15:51:01.823Z,4.60
2024-05-09T15:53:19.069Z,4.18
2024-05-09T15:55:36.319Z,4.20
2024-05-09T15:57:53.569Z,5.20
2024-05-09T16:00:21.447Z,4.53
2024-05-09T16:02:42.412Z,3.65
2024-05-09T16:04:59.737Z,6.72
2024-05-09T16:07:17.015Z,5.78
2024-05-09T16:09:34.209Z,5.13
2024-05-09T16:11:51.338Z,4.40
2024-05-09T16:14:08.485Z,4.05
2024-05-09T16:16:25.879Z,3.50
2024-05-09T16:18:43.234Z,4.47
2024-05-09T16:21:00.404Z,3.83
2024-05-09T16:23:17.567Z,3.75
2024-05-09T16:25:35.519Z,4.63
2024-05-09T16:27:52.685Z,5.07
2024-05-09T16:30:14.868Z,3.20
2024-05-09T16:32:37.980Z,3.60
2024-05-09T16:34:55.397Z,4.65
2024-05-09T16:37:12.679Z,3.35
2024-05-09T16:39:29.888Z,3.65
2024-05-09T16:41:47.066Z,5.70
2024-05-09T16:44:04.244Z,5.93
2024-05-09T16:46:21.457Z,4.80
2024-05-09T16:48:38.882Z,5.53
2024-05-09T16:50:55.986Z,4.78
2024-05-09T16:53:13.117Z,3.90
2024-05-09T16:55:30.265Z,5.10
2024-05-09T16:57:47.431Z,4.90
2024-05-09T17:00:09.219Z,6.88
2024-05-09T17:02:28.910Z,4.47
2024-05-09T17:04:46.216Z,5.60
2024-05-09T17:07:03.425Z,7.25
2024-05-09T17:09:20.638Z,4.18
2024-05-09T17:11:38.175Z,4.60
2024-05-09T17:13:55.350Z,10.02
2024-05-09T17:16:12.492Z,6.88
2024-05-09T17:18:29.648Z,5.35
2024-05-09T17:20:46.844Z,8.43
2024-05-09T17:23:04.299Z,7.43
2024-05-09T17:25:21.753Z,5.90
2024-05-09T17:27:38.924Z,6.43
2024-05-09T17:29:56.497Z,5.55
2024-05-09T17:32:13.792Z,5.65
2024-05-09T17:34:31.152Z,5.18
2024-05-09T17:36:48.364Z,8.50
2024-05-09T17:39:05.549Z,6.90
2024-05-09T17:41:22.766Z,5.43
2024-05-09T17:43:39.887Z,3.95
2024-05-09T17:45:57.036Z,4.63
2024-05-09T17:48:14.373Z,4.93
2024-05-09T17:50:35.751Z,4.20
2024-05-09T17:52:54.551Z,4.38
2024-05-09T17:55:11.696Z,4.90
2024-05-09T17:57:28.798Z,5.13
2024-05-09T17:59:45.902Z,6.82
2024-05-09T18:02:03.245Z,4.78
2024-05-09T18:04:20.584Z,7.57
2024-05-09T18:06:37.958Z,7.00
2024-05-09T18:08:55.203Z,7.53
2024-05-09T18:11:12.308Z,6.15
2024-05-09T18:13:29.576Z,5.38
2024-05-09T18:15:46.797Z,7.43
2024-05-09T18:18:04.437Z,5.15
2024-05-09T18:20:32.609Z,6.60
2024-05-09T18:22:57.883Z,12.98
2024-05-09T18:25:15.162Z,12.30
2024-05-09T18:27:32.540Z,5.47
2024-05-09T18:29:49.673Z,7.40
2024-05-09T18:32:06.846Z,3.88
2024-05-09T18:34:24.104Z,4.72
2024-05-09T18:36:41.446Z,5.88
2024-05-09T18:38:58.577Z,5.80
2024-05-09T18:41:15.929Z,5.85
2024-05-09T18:43:38.517Z,5.63
2024-05-09T18:46:01.811Z,5.68
2024-05-09T18:48:19.216Z,6.35
2024-05-09T18:50:39.417Z,4.50
2024-05-09T18:52:58.171Z,5.63
2024-05-09T18:55:15.517Z,4.10
2024-05-09T18:57:32.855Z,5.72
2024-05-09T18:59:49.972Z,8.25
2024-05-09T19:02:07.470Z,4.75
2024-05-09T19:04:25.003Z,5.80
2024-05-09T19:06:42.227Z,4.30
2024-05-09T19:08:59.364Z,5.13
2024-05-09T19:11:16.526Z,7.55
2024-05-09T19:13:34.030Z,5.00
2024-05-09T19:15:51.240Z,6.68
2024-05-09T19:18:08.562Z,3.72
2024-05-09T19:20:31.920Z,8.38
2024-05-09T19:22:52.258Z,4.93
2024-05-09T19:25:09.413Z,8.55
2024-05-09T19:27:26.655Z,4.40
2024-05-09T19:29:43.745Z,3.42
2024-05-09T19:32:00.901Z,4.95
2024-05-09T19:34:18.164Z,4.20
2024-05-09T19:36:35.476Z,5.75
2024-05-09T19:38:52.584Z,5.30
2024-05-09T19:41:09.810Z,5.50
2024-05-09T19:43:27.096Z,7.45
2024-05-09T19:45:44.295Z,6.57
2024-05-09T19:48:01.674Z,7.13
2024-05-09T19:50:26.690Z,6.35
2024-05-09T19:52:50.983Z,4.25
2024-05-09T19:55:08.252Z,5.40
2024-05-09T19:57:25.431Z,6.35
2024-05-09T19:59:42.510Z,8.27
2024-05-09T20:01:59.773Z,6.55
2024-05-09T20:04:17.094Z,10.00
2024-05-09T20:06:34.489Z,6.50
2024-05-09T20:08:51.589Z,7.68
2024-05-09T20:11:08.637Z,7.15
2024-05-09T20:13:26.005Z,6.82
2024-05-09T20:15:43.249Z,5.15
2024-05-09T20:18:00.655Z,10.10
2024-05-09T20:20:28.221Z,16.38
2024-05-09T20:22:53.218Z,11.40
2024-05-09T20:25:10.448Z,10.55
2024-05-09T20:27:27.802Z,6.85
2024-05-09T20:29:44.895Z,6.22
2024-05-09T20:32:02.048Z,6.68
2024-05-09T20:34:19.130Z,10.13
2024-05-09T20:36:36.313Z,7.53
2024-05-09T20:38:53.396Z,5.78
2024-05-09T20:41:10.526Z,9.70
2024-05-09T20:43:28.206Z,9.60
2024-05-09T20:45:45.395Z,5.88
2024-05-09T20:48:02.759Z,7.88
2024-05-09T20:50:28.535Z,6.85
2024-05-09T20:52:53.426Z,10.18
2024-05-09T20:55:10.589Z,8.60
2024-05-09T20:57:27.907Z,7.70
2024-05-09T20:59:45.023Z,10.32
2024-05-09T21:02:02.257Z,7.40
2024-05-09T21:04:19.650Z,5.38
2024-05-09T21:06:36.807Z,6.93
2024-05-09T21:08:53.925Z,7.38
2024-05-09T21:11:11.032Z,6.43
2024-05-09T21:13:28.248Z,4.70
2024-05-09T21:15:45.630Z,7.65
2024-05-09T21:18:03.008Z,7.80
2024-05-09T21:20:24.416Z,10.18
2024-05-09T21:22:47.494Z,9.65
2024-05-09T21:25:04.594Z,7.32
2024-05-09T21:27:22.125Z,7.07
2024-05-09T21:29:39.390Z,8.63
2024-05-09T21:31:56.447Z,6.57
2024-05-09T21:34:13.811Z,7.30
2024-05-09T21:36:30.929Z,8.38
2024-05-09T21:38:48.019Z,8.18
2024-05-09T21:41:05.208Z,6.80
2024-05-09T21:43:22.457Z,4.57
2024-05-09T21:45:39.996Z,7.18
2024-05-09T21:47:57.223Z,7.75
2024-05-09T21:50:22.280Z,5.93
2024-05-09T21:52:44.333Z,6.07
2024-05-09T21:55:01.448Z,9.13
2024-05-09T21:57:18.548Z,6.47
2024-05-09T21:59:35.658Z,6.45
2024-05-09T22:01:52.814Z,7.55
2024-05-09T22:04:10.068Z,7.80
2024-05-09T22:06:27.172Z,4.70
2024-05-09T22:08:44.230Z,8.32
2024-05-09T22:11:01.392Z,6.18
2024-05-09T22:13:18.695Z,4.65
2024-05-09T22:15:37.581Z,5.20
2024-05-09T22:17:56.181Z,4.47
2024-05-09T22:20:21.850Z,5.57
2024-05-09T22:22:45.425Z,7.18
2024-05-09T22:25:02.727Z,5.32
2024-05-09T22:27:19.891Z,4.53
2024-05-09T22:29:36.999Z,7.72
2024-05-09T22:31:54.101Z,6.22
2024-05-09T22:34:11.356Z,7.40
2024-05-09T22:36:28.559Z,6.80
2024-05-09T22:38:45.685Z,6.25
2024-05-09T22:41:02.776Z,4.80
2024-05-09T22:43:21.009Z,8.00
2024-05-09T22:45:40.115Z,8.32
2024-05-09T22:47:57.995Z,7.45
2024-05-09T22:50:22.375Z,6.50
2024-05-09T22:52:43.541Z,7.07
2024-05-09T22:55:00.703Z,6.65
2024-05-09T22:57:17.817Z,4.95
2024-05-09T22:59:34.857Z,5.78
2024-05-09T23:01:52.473Z,7.25
2024-05-09T23:04:09.646Z,7.22
2024-05-09T23:06:26.790Z,9.85
2024-05-09T23:08:43.808Z,8.43
2024-05-09T23:11:01.107Z,7.55
2024-05-09T23:13:18.415Z,5.15
2024-05-09T23:15:35.641Z,5.82
2024-05-09T23:17:53.187Z,5.00
2024-05-09T23:20:11.729Z,5.03
2024-05-09T23:22:31.541Z,5.22
2024-05-09T23:24:48.700Z,6.25
2024-05-09T23:27:06.357Z,5.07
2024-05-09T23:29:23.453Z,6.40
2024-05-09T23:31:40.557Z,5.47
2024-05-09T23:33:57.836Z,7.15
2024-05-09T23:36:15.136Z,10.70
2024-05-09T23:38:32.262Z,4.75
2024-05-09T23:40:49.402Z,4.65
2024-05-09T23:43:06.682Z,5.65
2024-05-09T23:45:24.386Z,7.82
2024-05-09T23:47:41.726Z,4.82
2024-05-09T23:49:58.934Z,4.53
2024-05-09T23:52:16.555Z,8.63
2024-05-09T23:54:33.704Z,5.35
2024-05-09T23:56:51.336Z,5.40
2024-05-09T23:59:08.389Z,5.65
